الصفحة الرئيسية
METAR-TAF:

METAR-TAF

مطار :

Ivano-Frankivsk, أوكرانيا

دائرة عرض: 48-53-03N, خط طول: 024-41-10E, ارتفاع: 280 متر

مراقبة الطقس الحالي

تاريخ ووقت الإصدار 6ساعات و 28 دقيقة قبل الساعة 08:00UTC
ريح 8 عقدة من الجنوب/الجنوب الغربي, الاتجاه يتراوح بين الجنوب/الجنوب الشرقي و الجنوب الغربي
درجة الحرارة 11°درجة مئوية
الرطوبة 58%
ضغط 1005 hPa
الرؤية 10 كم أو أكثر

METAR: UKLI 230800Z 20004MPS 150V230 9999 NSC 11/03 Q1005 R10/CLRD//

زمن: 16:28 (14:28 UTC)


TAF: مفقودة

أرصاد الطقس والتوقعات من أكثر من 4000 مطار (تقارير الطقس للمطار METAR والتنبؤ بالطقس بالمطارTAF).

المحطات المتاحة هي النقط الصفراء والحمراء على الخريطة.

حرك المؤشر فوق النقطة لمعرفة اسم المحطة.

ثم انقر لمعرفة أرصاد وتوقعات الطقس.

لتغيير الخارطة: اضغط على الأزرار الخضراء مع رمز الصليب الأسود للتكبير. على الزر الأخضر مع شرطة للتصغير، أو على الأسهم الخضراء للخرائط المجاورة.


METAR-TAF: